Time;durP1;ratioP1;P1;durP2;ratioP2;P2;SDS_P1;SDS_P2;PMS_P1;PMS_P2;Temp;Humidity;BMP_temperature;BMP_pressure;BME280_temperature;BME280_humidity;BME280_pressure;Samples;Min_cycle;Max_cycle;Signal;HPM_P1;HPM_P2
2021/12/25 00:02:01;;;;;;;5.35;3.45;;;9.10;99.90;;;;;;5038200;28;20080;-63
2021/12/25 00:04:30;;;;;;;6.95;4.63;;;9.10;99.90;;;;;;5044882;28;20045;-64
2021/12/25 00:06:57;;;;;;;7.07;5.03;;;9.10;99.90;;;;;;5044613;28;20354;-63
2021/12/25 00:09:25;;;;;;;5.80;4.25;;;9.10;99.90;;;;;;5044479;28;20053;-65
2021/12/25 00:11:52;;;;;;;9.38;6.13;;;9.10;99.90;;;;;;5045744;28;20087;-64
2021/12/25 00:14:19;;;;;;;9.45;6.45;;;9.10;99.90;;;;;;5046390;28;20053;-67
2021/12/25 00:16:46;;;;;;;10.68;6.75;;;9.10;99.90;;;;;;5045896;28;20504;-65
2021/12/25 00:19:13;;;;;;;10.10;6.82;;;9.10;99.90;;;;;;5046220;28;20048;-63
2021/12/25 00:21:40;;;;;;;9.82;7.95;;;9.10;99.90;;;;;;5045418;28;20581;-64
2021/12/25 00:24:07;;;;;;;11.25;7.53;;;9.10;99.90;;;;;;5034528;28;20095;-64
2021/12/25 00:26:49;;;;;;;11.85;7.47;;;9.10;99.90;;;;;;5044223;28;20041;-63
2021/12/25 00:29:53;;;;;;;10.52;8.00;;;9.10;99.90;;;;;;5045612;28;20084;-63
2021/12/25 00:32:13;;;;;;;12.20;7.55;;;9.10;99.90;;;;;;5044793;28;20496;-62
2021/12/25 00:34:41;;;;;;;12.35;8.40;;;9.00;99.90;;;;;;5045222;28;20057;-63
2021/12/25 00:37:08;;;;;;;11.88;8.27;;;9.00;99.90;;;;;;5043295;28;20045;-64
2021/12/25 00:39:35;;;;;;;12.13;8.05;;;9.00;99.90;;;;;;5046256;28;20044;-63
2021/12/25 00:42:03;;;;;;;13.82;8.25;;;9.00;99.90;;;;;;5048694;28;20053;-63
2021/12/25 00:44:30;;;;;;;13.43;9.35;;;9.00;99.90;;;;;;5047852;28;20491;-63
2021/12/25 00:46:57;;;;;;;13.65;9.20;;;9.00;99.90;;;;;;5047965;28;20084;-63
2021/12/25 00:49:25;;;;;;;12.95;7.85;;;9.00;99.90;;;;;;5046939;28;20056;-63
2021/12/25 00:51:51;;;;;;;14.35;9.07;;;9.10;99.90;;;;;;5046973;28;20102;-63
2021/12/25 00:54:19;;;;;;;15.00;8.95;;;9.00;99.90;;;;;;5046048;28;20083;-63
2021/12/25 00:56:46;;;;;;;12.43;8.38;;;9.00;99.90;;;;;;5046412;28;20100;-63
2021/12/25 00:59:13;;;;;;;10.20;7.97;;;9.00;99.90;;;;;;5046403;28;20781;-63
2021/12/25 01:01:40;;;;;;;14.45;8.90;;;8.90;99.90;;;;;;5046268;28;20074;-63
2021/12/25 01:04:07;;;;;;;11.55;8.45;;;8.90;99.90;;;;;;5046101;28;20538;-63
2021/12/25 01:06:35;;;;;;;11.68;8.55;;;8.90;99.90;;;;;;5047814;28;20538;-63
2021/12/25 01:09:02;;;;;;;15.05;9.15;;;8.90;99.90;;;;;;5047745;28;20077;-63
2021/12/25 01:11:30;;;;;;;10.30;8.02;;;8.90;99.90;;;;;;5048168;28;20049;-63
2021/12/25 01:14:04;;;;;;;13.70;9.05;;;8.90;99.90;;;;;;5047006;28;20045;-63
2021/12/25 01:27:26;;;;;;;12.80;8.43;;;8.90;99.90;;;;;;5048233;28;20053;-63
2021/12/25 01:35:37;;;;;;;14.52;9.82;;;8.80;99.90;;;;;;5043147;28;20416;-63
2021/12/25 01:38:24;;;;;;;16.85;9.93;;;8.80;99.90;;;;;;5028386;28;20077;-63
2021/12/25 01:41:55;;;;;;;13.20;9.48;;;8.90;99.90;;;;;;5046243;28;20048;-62
2021/12/25 01:49:11;;;;;;;15.38;10.20;;;8.80;99.90;;;;;;5047441;28;20064;-62
2021/12/25 01:51:38;;;;;;;14.63;9.50;;;8.80;99.90;;;;;;5047450;28;20081;-62
2021/12/25 01:54:05;;;;;;;19.00;10.75;;;8.80;99.90;;;;;;5048060;28;20467;-62
2021/12/25 01:56:32;;;;;;;17.58;11.00;;;8.80;99.90;;;;;;5050533;28;20041;-63
2021/12/25 01:58:58;;;;;;;13.30;10.40;;;8.80;99.90;;;;;;5051334;28;20574;-62
2021/12/25 02:01:25;;;;;;;14.52;9.75;;;8.80;99.90;;;;;;5049913;28;20053;-62
2021/12/25 02:03:52;;;;;;;18.13;12.80;;;8.80;99.90;;;;;;5051384;28;20045;-62
2021/12/25 02:06:19;;;;;;;17.45;11.68;;;8.80;99.90;;;;;;5050838;28;20080;-62
2021/12/25 02:08:46;;;;;;;23.00;12.85;;;8.90;99.90;;;;;;5051095;28;20103;-62
2021/12/25 02:11:13;;;;;;;18.10;12.20;;;8.80;99.90;;;;;;5051103;28;20048;-62
2021/12/25 02:13:40;;;;;;;19.58;12.68;;;8.80;99.90;;;;;;5051200;28;20103;-62
2021/12/25 02:16:12;;;;;;;16.88;12.20;;;8.80;99.90;;;;;;5050999;28;20045;-63
2021/12/25 02:19:03;;;;;;;16.33;10.40;;;8.70;99.90;;;;;;5051166;28;20045;-62
2021/12/25 02:21:40;;;;;;;16.88;10.07;;;8.70;99.90;;;;;;5050210;28;20045;-62
2021/12/25 02:24:11;;;;;;;19.17;10.70;;;8.80;99.90;;;;;;5051173;28;20091;-62
2021/12/25 02:26:41;;;;;;;18.63;11.68;;;8.80;99.90;;;;;;5050628;28;20055;-61
2021/12/25 02:29:07;;;;;;;18.83;11.40;;;8.80;99.90;;;;;;5050669;28;20076;-63
2021/12/25 02:31:34;;;;;;;20.23;11.70;;;8.80;99.90;;;;;;5050742;28;20072;-62
2021/12/25 02:34:02;;;;;;;20.65;11.90;;;8.80;99.90;;;;;;5050892;28;20069;-62
2021/12/25 02:36:28;;;;;;;24.05;12.82;;;8.80;99.90;;;;;;5050535;28;20462;-62
2021/12/25 02:38:55;;;;;;;22.17;12.65;;;8.70;99.90;;;;;;5049501;28;20122;-62
2021/12/25 02:41:22;;;;;;;20.60;11.40;;;8.80;99.90;;;;;;4710060;28;9999875;-62
2021/12/25 02:43:49;;;;;;;24.25;12.23;;;8.80;99.90;;;;;;5048037;28;20107;-62
2021/12/25 02:46:16;;;;;;;19.52;10.88;;;8.90;99.90;;;;;;5050835;28;20102;-62
2021/12/25 02:48:43;;;;;;;19.83;12.90;;;8.80;99.90;;;;;;5049050;28;20041;-62
2021/12/25 02:51:10;;;;;;;14.20;9.90;;;8.80;99.90;;;;;;5050417;28;20044;-62
2021/12/25 02:53:38;;;;;;;18.88;10.93;;;8.80;99.90;;;;;;5049085;28;20304;-62
2021/12/25 02:56:05;;;;;;;19.08;12.13;;;8.80;99.90;;;;;;5050575;28;20084;-61
2021/12/25 02:58:32;;;;;;;16.75;11.43;;;8.80;99.90;;;;;;5050276;28;20110;-62
2021/12/25 03:01:07;;;;;;;15.75;10.27;;;8.80;99.90;;;;;;5050554;28;20084;-62
2021/12/25 03:03:34;;;;;;;16.95;10.48;;;8.80;99.90;;;;;;5049994;28;20068;-62
2021/12/25 03:06:02;;;;;;;17.30;9.85;;;8.80;99.90;;;;;;5049831;28;20067;-62
2021/12/25 03:08:29;;;;;;;18.55;10.45;;;8.80;99.90;;;;;;5050085;28;20079;-63
2021/12/25 03:10:56;;;;;;;18.75;10.18;;;8.80;99.90;;;;;;5050274;28;20107;-63
2021/12/25 03:13:42;;;;;;;15.65;9.48;;;8.80;99.90;;;;;;5050203;28;20049;-62
2021/12/25 03:16:10;;;;;;;14.75;8.40;;;8.70;99.90;;;;;;5030153;28;20045;-62
2021/12/25 03:18:47;;;;;;;22.77;9.63;;;8.70;99.90;;;;;;5044435;28;20036;-62
2021/12/25 03:21:16;;;;;;;29.52;9.77;;;8.70;99.90;;;;;;5049849;28;20113;-62
2021/12/25 03:23:43;;;;;;;20.13;10.25;;;8.70;99.90;;;;;;5049895;28;20041;-62
2021/12/25 03:26:10;;;;;;;32.50;9.35;;;8.70;99.90;;;;;;5050050;28;20045;-62
2021/12/25 03:28:40;;;;;;;26.15;10.00;;;8.80;99.90;;;;;;5049533;28;20131;-62
2021/12/25 03:31:16;;;;;;;54.92;10.93;;;8.70;99.90;;;;;;5049734;28;20049;-62
2021/12/25 03:33:48;;;;;;;50.00;11.57;;;8.70;99.90;;;;;;5049499;28;20067;-62
2021/12/25 03:36:15;;;;;;;32.63;10.65;;;8.70;99.90;;;;;;5049558;28;20094;-62
2021/12/25 03:38:43;;;;;;;46.83;11.55;;;8.70;99.90;;;;;;5049529;28;20044;-62
2021/12/25 03:41:11;;;;;;;26.17;9.23;;;8.80;99.90;;;;;;5048346;28;20083;-62
2021/12/25 03:43:39;;;;;;;35.60;10.48;;;8.80;99.90;;;;;;5049244;28;20037;-63
2021/12/25 03:46:09;;;;;;;58.10;11.07;;;8.80;99.90;;;;;;5049328;28;20049;-62
2021/12/25 03:59:18;;;;;;;67.70;12.20;;;8.80;99.90;;;;;;5050099;28;20044;-63
2021/12/25 04:01:52;;;;;;;57.13;13.13;;;8.80;99.90;;;;;;5047224;28;20072;-63
2021/12/25 04:04:32;;;;;;;82.82;13.75;;;8.80;99.90;;;;;;5048911;28;20045;-62
2021/12/25 04:07:08;;;;;;;88.72;13.73;;;8.80;99.90;;;;;;5048850;28;20546;-63
2021/12/25 04:09:37;;;;;;;84.60;13.68;;;8.80;99.90;;;;;;5049030;28;20087;-62
2021/12/25 04:12:10;;;;;;;101.95;15.68;;;8.80;99.90;;;;;;5049247;28;20076;-62
2021/12/25 04:14:37;;;;;;;97.88;14.35;;;8.80;99.90;;;;;;5047545;28;20488;-63
2021/12/25 04:17:04;;;;;;;128.38;17.60;;;8.80;99.90;;;;;;5048535;28;20455;-62
2021/12/25 04:19:31;;;;;;;123.95;15.45;;;8.80;99.90;;;;;;5048538;28;20036;-62
2021/12/25 04:22:02;;;;;;;105.90;16.42;;;8.80;99.90;;;;;;5049001;28;20103;-62
2021/12/25 04:24:32;;;;;;;110.28;15.98;;;8.80;99.90;;;;;;5048979;28;20462;-62
2021/12/25 04:26:59;;;;;;;104.45;16.85;;;8.80;99.90;;;;;;5048553;28;20068;-62
2021/12/25 05:02:03;;;;;;;32.63;14.80;;;8.80;99.90;;;;;;5047990;28;20045;-63
2021/12/25 05:04:37;;;;;;;28.80;15.48;;;8.80;99.90;;;;;;5047370;28;20049;-63
2021/12/25 05:07:08;;;;;;;28.17;14.43;;;8.80;99.90;;;;;;5048193;28;20072;-62
2021/12/25 05:09:35;;;;;;;30.25;14.50;;;8.80;99.90;;;;;;5048480;28;20162;-62
2021/12/25 05:12:02;;;;;;;29.75;15.73;;;8.80;99.90;;;;;;5048033;28;20052;-62
2021/12/25 05:14:28;;;;;;;33.75;17.25;;;8.80;99.90;;;;;;5047269;28;20195;-62
2021/12/25 05:16:55;;;;;;;28.08;15.07;;;8.80;99.90;;;;;;5047641;28;20045;-62
2021/12/25 05:19:22;;;;;;;28.40;14.40;;;8.80;99.90;;;;;;5047061;28;20160;-62
2021/12/25 05:21:49;;;;;;;25.65;14.50;;;8.70;99.90;;;;;;5047811;28;20111;-62
2021/12/25 05:24:16;;;;;;;26.10;14.45;;;8.70;99.90;;;;;;5048223;28;20106;-62
2021/12/25 05:26:42;;;;;;;23.83;13.73;;;8.70;99.90;;;;;;5047964;28;20099;-62
2021/12/25 05:29:10;;;;;;;28.73;14.20;;;8.70;99.90;;;;;;5049365;28;20064;-62
2021/12/25 05:31:37;;;;;;;26.65;13.82;;;8.70;99.90;;;;;;5051882;28;20122;-62
2021/12/25 05:34:04;;;;;;;26.30;14.70;;;8.70;99.90;;;;;;5052204;28;20049;-62
2021/12/25 05:36:30;;;;;;;35.40;13.63;;;8.70;99.90;;;;;;5052518;28;20049;-63
2021/12/25 05:38:59;;;;;;;24.17;11.98;;;8.70;99.90;;;;;;5052448;28;20091;-66
2021/12/25 05:41:27;;;;;;;25.00;11.85;;;8.70;99.90;;;;;;5052538;28;20049;-63
2021/12/25 05:43:54;;;;;;;27.75;12.70;;;8.60;99.90;;;;;;5051710;28;20045;-63
2021/12/25 05:46:22;;;;;;;26.13;12.40;;;8.60;99.90;;;;;;5051904;28;20044;-63
2021/12/25 05:48:50;;;;;;;23.65;11.82;;;8.60;99.90;;;;;;5051383;28;20083;-63
2021/12/25 05:51:17;;;;;;;31.00;11.75;;;8.60;99.90;;;;;;5051497;28;20110;-63
2021/12/25 05:53:44;;;;;;;25.15;11.50;;;8.70;99.90;;;;;;5051354;28;20180;-63
2021/12/25 05:56:11;;;;;;;29.27;12.27;;;8.60;99.90;;;;;;5051519;28;20119;-64
2021/12/25 05:58:38;;;;;;;30.02;11.85;;;8.70;99.90;;;;;;5050081;28;20041;-63
2021/12/25 06:01:05;;;;;;;25.50;12.13;;;8.60;99.90;;;;;;5051343;28;20102;-63
2021/12/25 06:03:32;;;;;;;28.17;10.57;;;8.70;99.90;;;;;;5051488;28;20152;-64
2021/12/25 06:05:59;;;;;;;23.75;11.75;;;8.60;99.90;;;;;;5051366;28;20095;-63
2021/12/25 06:08:27;;;;;;;26.38;12.70;;;8.60;99.90;;;;;;5051157;28;20124;-63
2021/12/25 06:10:53;;;;;;;28.30;12.57;;;8.60;99.90;;;;;;5051373;28;20085;-64
2021/12/25 06:13:22;;;;;;;28.35;14.05;;;8.60;99.90;;;;;;5051077;28;20492;-63
2021/12/25 06:15:49;;;;;;;31.38;12.38;;;8.60;99.90;;;;;;5050220;28;20111;-63
2021/12/25 06:18:16;;;;;;;31.00;12.25;;;8.70;99.90;;;;;;5051040;28;20059;-63
2021/12/25 06:20:43;;;;;;;35.85;13.93;;;8.70;99.90;;;;;;5051531;28;20123;-63
2021/12/25 06:23:10;;;;;;;28.90;13.07;;;8.70;99.90;;;;;;5051337;28;20049;-63
2021/12/25 06:25:36;;;;;;;23.55;12.93;;;8.60;99.90;;;;;;5051152;28;20488;-63
2021/12/25 06:28:03;;;;;;;28.45;13.05;;;8.70;99.90;;;;;;5051179;28;20106;-65
2021/12/25 06:30:33;;;;;;;30.65;13.63;;;8.70;99.90;;;;;;5050868;28;20095;-63
2021/12/25 06:33:00;;;;;;;25.90;12.07;;;8.60;99.90;;;;;;5051063;28;20045;-63
2021/12/25 06:35:28;;;;;;;21.30;11.93;;;8.60;99.90;;;;;;5050767;28;20640;-62
2021/12/25 06:37:54;;;;;;;24.20;13.48;;;8.60;99.90;;;;;;5050601;28;20234;-63
2021/12/25 06:40:26;;;;;;;23.90;12.38;;;8.60;99.90;;;;;;5049777;28;20088;-63
2021/12/25 06:42:53;;;;;;;20.90;13.15;;;8.60;99.90;;;;;;5050411;28;20049;-62
2021/12/25 06:45:20;;;;;;;24.42;12.13;;;8.60;99.90;;;;;;5050347;28;20045;-62
2021/12/25 06:47:47;;;;;;;25.17;12.32;;;8.60;99.90;;;;;;5050226;28;20049;-62
2021/12/25 06:50:13;;;;;;;34.05;12.50;;;8.60;99.90;;;;;;5050154;28;20048;-62
2021/12/25 06:52:41;;;;;;;25.42;13.18;;;8.60;99.90;;;;;;5050368;28;20095;-62
2021/12/25 06:55:09;;;;;;;26.35;13.75;;;8.60;99.90;;;;;;5050064;28;20049;-62
2021/12/25 06:57:43;;;;;;;23.73;13.65;;;8.60;99.90;;;;;;5050341;28;20088;-63
2021/12/25 07:00:11;;;;;;;23.25;14.73;;;8.60;99.90;;;;;;5049873;28;20553;-64
2021/12/25 07:02:38;;;;;;;26.52;13.45;;;8.60;99.90;;;;;;5050023;28;20055;-63
2021/12/25 07:05:05;;;;;;;29.52;13.55;;;8.60;99.90;;;;;;5049922;28;20044;-63
2021/12/25 07:07:32;;;;;;;23.27;13.65;;;8.60;99.90;;;;;;5050186;28;20512;-64
2021/12/25 07:09:58;;;;;;;20.98;11.82;;;8.60;99.90;;;;;;5049685;28;20471;-63
2021/12/25 07:12:27;;;;;;;21.10;13.25;;;8.60;99.90;;;;;;5049960;28;20075;-63
2021/12/25 07:14:54;;;;;;;49.47;12.90;;;8.60;99.90;;;;;;5051178;28;20045;-63
2021/12/25 07:17:21;;;;;;;17.75;9.40;;;8.60;99.90;;;;;;5051164;28;20045;-63
2021/12/25 07:19:47;;;;;;;14.38;8.77;;;8.60;99.90;;;;;;5051693;28;20045;-64
2021/12/25 07:22:14;;;;;;;10.73;7.63;;;8.50;99.90;;;;;;5050563;28;20083;-63
2021/12/25 07:24:41;;;;;;;11.68;6.47;;;8.50;99.90;;;;;;5049723;28;20137;-62
2021/12/25 07:27:08;;;;;;;10.95;5.45;;;8.50;99.90;;;;;;5049446;28;20085;-63
2021/12/25 07:29:37;;;;;;;7.35;4.75;;;8.50;99.90;;;;;;5028508;28;20127;-63
2021/12/25 07:32:04;;;;;;;8.32;4.63;;;8.50;99.90;;;;;;5042527;28;20496;-63
2021/12/25 07:34:30;;;;;;;8.13;4.53;;;8.40;99.90;;;;;;5049371;28;20045;-63
2021/12/25 07:36:57;;;;;;;5.93;3.95;;;8.40;99.90;;;;;;5048168;28;20446;-63
2021/12/25 07:39:24;;;;;;;6.28;4.18;;;8.40;99.90;;;;;;5048339;28;20099;-63
2021/12/25 07:41:51;;;;;;;8.05;3.90;;;8.40;99.90;;;;;;5048065;28;20110;-63
2021/12/25 07:44:18;;;;;;;5.45;4.35;;;8.30;99.90;;;;;;5049531;28;20517;-63
2021/12/25 07:46:45;;;;;;;5.65;3.60;;;8.30;99.90;;;;;;5049505;28;20095;-64
2021/12/25 07:49:17;;;;;;;6.93;3.53;;;8.30;99.90;;;;;;5049226;28;20080;-63
2021/12/25 07:51:44;;;;;;;5.88;3.72;;;8.30;99.90;;;;;;5048566;28;20405;-63
2021/12/25 07:54:11;;;;;;;6.20;3.13;;;8.30;99.90;;;;;;5048549;28;20045;-63
2021/12/25 07:56:39;;;;;;;13.73;3.30;;;8.30;99.90;;;;;;5049242;28;20485;-64
2021/12/25 07:59:06;;;;;;;7.72;2.78;;;8.30;99.90;;;;;;5047828;28;20080;-63
2021/12/25 08:01:35;;;;;;;5.18;2.78;;;8.20;99.90;;;;;;5048865;28;20049;-63
2021/12/25 08:04:03;;;;;;;8.85;2.92;;;8.20;99.90;;;;;;5046011;28;20338;-63
2021/12/25 08:06:30;;;;;;;13.18;2.55;;;8.20;99.90;;;;;;5048050;28;20076;-63
2021/12/25 08:09:01;;;;;;;5.90;2.80;;;8.20;99.90;;;;;;5048550;28;20084;-63
2021/12/25 08:11:30;;;;;;;5.50;2.95;;;8.20;99.90;;;;;;5049187;28;20293;-63
2021/12/25 08:13:57;;;;;;;4.38;2.50;;;8.20;99.90;;;;;;5047093;28;20064;-63
2021/12/25 08:16:24;;;;;;;3.78;2.10;;;8.20;99.90;;;;;;5048383;28;20037;-63
2021/12/25 08:18:50;;;;;;;4.25;2.47;;;8.10;99.90;;;;;;5048477;28;20056;-62
2021/12/25 08:21:17;;;;;;;3.35;1.58;;;8.10;99.90;;;;;;5046964;28;20476;-62
2021/12/25 08:23:44;;;;;;;5.32;1.70;;;8.10;99.90;;;;;;5047264;28;20459;-63
2021/12/25 08:26:15;;;;;;;2.33;1.40;;;8.10;99.90;;;;;;5047506;28;20045;-62
2021/12/25 08:28:42;;;;;;;4.53;1.30;;;8.10;99.90;;;;;;5048515;28;20601;-63
2021/12/25 08:31:08;;;;;;;2.45;0.82;;;8.10;99.90;;;;;;5048458;28;20079;-63
2021/12/25 08:33:35;;;;;;;3.03;1.30;;;8.00;99.90;;;;;;5048246;28;20060;-62
2021/12/25 08:36:02;;;;;;;4.93;1.38;;;8.00;99.90;;;;;;5048674;28;20053;-63
2021/12/25 08:38:29;;;;;;;6.50;1.35;;;8.00;99.90;;;;;;5047206;28;20394;-63
2021/12/25 08:40:56;;;;;;;2.58;1.20;;;8.00;99.90;;;;;;5048477;28;20313;-63
2021/12/25 08:43:32;;;;;;;2.72;1.33;;;7.90;99.90;;;;;;5047954;28;20323;-63
2021/12/25 08:46:13;;;;;;;2.40;1.52;;;7.90;99.90;;;;;;5047317;28;20045;-64
2021/12/25 08:48:40;;;;;;;5.45;1.60;;;7.90;99.90;;;;;;5048027;28;20067;-63
2021/12/25 08:51:07;;;;;;;4.18;1.40;;;7.90;99.90;;;;;;5046354;28;20037;-63
2021/12/25 08:53:33;;;;;;;2.88;1.40;;;7.90;99.90;;;;;;5045997;28;20080;-64
2021/12/25 08:56:00;;;;;;;3.25;1.50;;;8.00;99.90;;;;;;5048727;28;20081;-64
2021/12/25 08:58:30;;;;;;;3.58;1.35;;;7.90;99.90;;;;;;5048503;28;20048;-62
2021/12/25 09:01:01;;;;;;;1.48;1.35;;;8.00;99.90;;;;;;5048191;28;20048;-61
2021/12/25 09:03:29;;;;;;;6.22;1.40;;;7.90;99.90;;;;;;5046857;28;20053;-62
2021/12/25 09:05:56;;;;;;;2.83;1.40;;;7.90;99.90;;;;;;5047242;28;20071;-62
2021/12/25 09:08:23;;;;;;;3.28;1.48;;;7.90;99.90;;;;;;5045969;28;20132;-62
2021/12/25 09:10:51;;;;;;;4.75;1.75;;;7.90;99.90;;;;;;4696966;28;10000051;-60
2021/12/25 09:13:17;;;;;;;1.10;1.00;;;8.00;99.90;;;;;;5045364;28;20102;-63
2021/12/25 09:15:44;;;;;;;3.47;1.17;;;8.00;99.90;;;;;;5045095;28;20145;-61
2021/12/25 09:18:11;;;;;;;5.90;1.55;;;8.00;99.90;;;;;;5025607;28;20239;-61
2021/12/25 09:20:38;;;;;;;3.95;1.50;;;8.00;99.90;;;;;;5039399;28;20080;-61
2021/12/25 09:23:05;;;;;;;5.57;1.27;;;8.00;99.90;;;;;;5045518;28;20110;-64
2021/12/25 09:25:32;;;;;;;2.42;1.25;;;7.90;99.90;;;;;;5044917;28;20064;-62
2021/12/25 09:27:59;;;;;;;3.35;1.20;;;7.70;99.90;;;;;;5045014;28;20053;-61
2021/12/25 09:30:26;;;;;;;3.97;1.35;;;7.90;99.90;;;;;;5044959;28;20077;-61
2021/12/25 09:32:53;;;;;;;2.08;1.10;;;7.90;99.90;;;;;;5044835;28;20049;-61
2021/12/25 09:35:20;;;;;;;2.28;1.20;;;7.90;99.90;;;;;;5042773;28;20045;-60
2021/12/25 09:37:47;;;;;;;3.70;1.60;;;7.90;99.90;;;;;;5044245;28;20044;-62
2021/12/25 09:40:14;;;;;;;1.90;1.30;;;7.90;99.90;;;;;;5044066;28;20048;-61
2021/12/25 09:42:42;;;;;;;1.48;1.38;;;7.80;99.90;;;;;;5043838;28;20045;-61
2021/12/25 09:45:10;;;;;;;2.05;1.20;;;7.80;99.90;;;;;;5043200;28;20124;-61
2021/12/25 09:47:37;;;;;;;2.33;1.02;;;7.90;99.90;;;;;;5042533;28;20123;-62
2021/12/25 09:50:04;;;;;;;3.95;1.20;;;7.80;99.90;;;;;;5044209;28;20049;-61
2021/12/25 09:52:31;;;;;;;5.47;1.50;;;7.90;99.90;;;;;;5044049;28;20140;-61
2021/12/25 09:54:58;;;;;;;3.40;1.75;;;7.90;99.90;;;;;;5042754;28;20511;-61
2021/12/25 09:57:25;;;;;;;6.45;1.17;;;7.80;99.90;;;;;;5044073;28;20223;-60
2021/12/25 09:59:53;;;;;;;2.92;1.40;;;7.80;99.90;;;;;;5043691;28;20167;-61
2021/12/25 10:02:19;;;;;;;3.75;1.33;;;7.80;99.90;;;;;;5043633;28;20053;-61
2021/12/25 10:04:56;;;;;;;1.52;1.17;;;7.80;99.90;;;;;;5046532;28;20053;-61
2021/12/25 10:07:29;;;;;;;2.72;1.77;;;7.80;99.90;;;;;;5040500;28;20489;-61
2021/12/25 10:10:13;;;;;;;1.50;1.30;;;7.70;99.90;;;;;;5042635;28;20053;-60
2021/12/25 10:12:43;;;;;;;4.88;1.70;;;7.70;99.90;;;;;;5043577;28;20053;-62
2021/12/25 10:15:17;;;;;;;5.80;2.10;;;7.70;99.90;;;;;;5042835;28;20428;-61
2021/12/25 10:17:49;;;;;;;2.75;1.75;;;7.60;99.90;;;;;;5047350;28;20045;-61
2021/12/25 10:20:18;;;;;;;5.78;2.20;;;7.70;99.90;;;;;;5027601;28;20111;-61
2021/12/25 10:22:55;;;;;;;8.63;2.13;;;7.60;99.90;;;;;;5041981;28;20076;-60
2021/12/25 10:25:22;;;;;;;7.50;2.53;;;7.60;99.90;;;;;;5047320;28;20459;-60
2021/12/25 10:27:51;;;;;;;5.55;2.40;;;7.60;99.90;;;;;;5045384;28;20581;-60
2021/12/25 10:30:18;;;;;;;8.10;3.15;;;7.50;99.90;;;;;;5045944;28;20076;-62
2021/12/25 10:32:45;;;;;;;5.65;2.72;;;7.50;99.90;;;;;;5046215;28;20155;-60
2021/12/25 10:35:20;;;;;;;5.57;2.55;;;7.60;99.90;;;;;;5047211;28;20065;-61
2021/12/25 10:37:47;;;;;;;6.65;3.00;;;7.50;99.90;;;;;;5046170;28;20103;-61
2021/12/25 10:40:32;;;;;;;4.88;3.75;;;7.50;99.90;;;;;;5045976;28;20083;-61
2021/12/25 10:43:01;;;;;;;7.57;2.78;;;7.50;99.90;;;;;;5045716;28;20048;-61
2021/12/25 10:45:29;;;;;;;5.95;2.85;;;7.50;99.90;;;;;;5047591;28;20393;-61
2021/12/25 10:48:08;;;;;;;6.90;2.50;;;7.50;99.90;;;;;;5045322;28;20111;-61
2021/12/25 10:50:42;;;;;;;9.95;4.30;;;7.50;99.90;;;;;;5047616;28;20053;-61
2021/12/25 10:53:42;;;;;;;5.95;2.53;;;7.50;99.90;;;;;;5046634;28;20107;-60
2021/12/25 10:56:12;;;;;;;6.35;2.80;;;7.50;99.90;;;;;;5034850;28;20053;-61
2021/12/25 10:58:39;;;;;;;10.00;3.45;;;7.50;99.90;;;;;;5046856;28;20067;-61
2021/12/25 11:01:07;;;;;;;6.10;3.00;;;7.50;99.90;;;;;;5046559;28;20067;-61
2021/12/25 11:03:37;;;;;;;11.95;3.97;;;7.40;99.90;;;;;;5046242;28;20048;-61
2021/12/25 11:06:16;;;;;;;5.47;3.42;;;7.40;99.90;;;;;;5045538;28;20055;-61
2021/12/25 11:08:44;;;;;;;12.55;3.35;;;7.40;99.90;;;;;;5048744;28;20110;-63
2021/12/25 11:11:18;;;;;;;10.82;3.95;;;7.40;99.90;;;;;;5047980;28;20057;-61
2021/12/25 11:13:50;;;;;;;11.35;3.60;;;7.40;99.90;;;;;;5049487;28;20669;-61
2021/12/25 11:16:31;;;;;;;8.68;3.78;;;7.40;99.90;;;;;;5049361;28;20221;-61
2021/12/25 11:19:28;;;;;;;9.07;3.88;;;7.40;99.90;;;;;;5049350;28;20554;-61
2021/12/25 11:21:56;;;;;;;9.02;4.15;;;7.40;99.90;;;;;;5049416;28;20064;-61
2021/12/25 11:24:27;;;;;;;12.95;4.70;;;7.40;99.90;;;;;;5049125;28;20075;-61
2021/12/25 11:26:59;;;;;;;9.23;3.97;;;7.40;99.90;;;;;;5049325;28;20107;-61
2021/12/25 11:29:29;;;;;;;13.98;4.43;;;7.40;99.90;;;;;;5049489;28;20106;-61
2021/12/25 11:31:56;;;;;;;6.72;3.78;;;7.40;99.90;;;;;;5048506;28;20084;-61
2021/12/25 11:34:24;;;;;;;8.40;5.07;;;7.30;99.90;;;;;;5049414;28;20083;-61
2021/12/25 11:36:52;;;;;;;9.95;4.03;;;7.30;99.90;;;;;;5049993;28;20049;-60
2021/12/25 11:39:21;;;;;;;9.50;4.40;;;7.30;99.90;;;;;;5048582;28;20091;-60
2021/12/25 11:41:49;;;;;;;15.65;5.93;;;7.30;99.90;;;;;;5049516;28;20076;-60
2021/12/25 11:44:34;;;;;;;10.02;5.10;;;7.30;99.90;;;;;;5048499;28;20099;-60
2021/12/25 11:47:02;;;;;;;12.00;4.82;;;7.40;99.90;;;;;;5039901;28;20075;-61
2021/12/25 11:49:29;;;;;;;16.23;6.00;;;7.30;99.90;;;;;;5049054;28;20064;-61
2021/12/25 11:52:18;;;;;;;18.58;6.43;;;7.30;99.90;;;;;;5049706;28;20618;-61
2021/12/25 11:59:49;;;;;;;11.27;4.57;;;7.30;99.90;;;;;;5047868;28;20057;-61
2021/12/25 12:02:38;;;;;;;12.48;5.05;;;7.30;99.90;;;;;;5048916;28;20049;-61
2021/12/25 12:05:20;;;;;;;12.90;4.38;;;7.30;99.90;;;;;;5049278;28;20071;-61
2021/12/25 12:07:58;;;;;;;13.32;5.15;;;7.30;99.90;;;;;;5038627;28;20193;-61
2021/12/25 12:10:44;;;;;;;14.35;5.03;;;7.30;99.90;;;;;;5048333;28;20045;-61
2021/12/25 12:13:19;;;;;;;8.00;4.53;;;7.30;99.90;;;;;;5049146;28;20048;-61
2021/12/25 12:15:47;;;;;;;11.43;5.13;;;7.30;99.90;;;;;;5048784;28;20124;-60
2021/12/25 12:18:27;;;;;;;12.95;4.88;;;7.40;99.90;;;;;;5049218;28;20049;-60
2021/12/25 12:21:11;;;;;;;7.20;4.63;;;7.40;99.90;;;;;;5048841;28;20080;-61
2021/12/25 12:26:13;;;;;;;10.52;4.78;;;7.40;99.90;;;;;;5047624;28;20119;-60
2021/12/25 12:28:46;;;;;;;15.75;6.13;;;7.40;99.90;;;;;;5048977;28;20114;-61
2021/12/25 12:31:34;;;;;;;8.15;4.60;;;7.40;99.90;;;;;;5047058;28;20090;-60
2021/12/25 12:34:02;;;;;;;9.10;4.40;;;7.50;99.90;;;;;;5047330;28;20044;-61
2021/12/25 12:36:29;;;;;;;15.60;4.65;;;7.50;99.90;;;;;;5045575;28;20483;-60
2021/12/25 12:39:13;;;;;;;14.13;4.80;;;7.50;99.90;;;;;;5047442;28;20049;-62
2021/12/25 12:41:50;;;;;;;9.02;4.20;;;7.50;99.90;;;;;;5048422;28;20114;-60
2021/12/25 12:44:25;;;;;;;11.35;4.13;;;7.50;99.90;;;;;;5047046;28;20076;-61
2021/12/25 12:46:55;;;;;;;10.82;4.75;;;7.50;99.90;;;;;;5046924;28;20044;-61
2021/12/25 12:49:23;;;;;;;8.35;4.30;;;7.40;99.90;;;;;;5048009;28;20088;-59
2021/12/25 12:52:09;;;;;;;16.17;4.97;;;7.40;99.90;;;;;;5047824;28;20099;-61
2021/12/25 12:54:51;;;;;;;9.65;4.63;;;7.40;99.90;;;;;;5048332;28;20056;-60
2021/12/25 12:57:25;;;;;;;12.82;4.53;;;7.40;99.90;;;;;;5048159;28;20076;-60
2021/12/25 12:59:52;;;;;;;;;;;7.40;99.90;;;;;;5048555;28;20084;-60
2021/12/25 13:02:20;;;;;;;14.63;4.60;;;7.40;99.90;;;;;;5047999;28;19971;-60
2021/12/25 13:04:50;;;;;;;10.27;5.25;;;7.30;99.90;;;;;;5048409;28;20057;-60
2021/12/25 13:07:18;;;;;;;10.50;4.55;;;7.30;99.90;;;;;;4698316;28;10000473;-63
2021/12/25 13:09:52;;;;;;;11.98;5.00;;;7.40;99.90;;;;;;5044883;28;20103;-61
2021/12/25 13:12:50;;;;;;;10.15;4.43;;;7.40;99.90;;;;;;5047177;28;20057;-60
2021/12/25 13:15:25;;;;;;;6.88;4.10;;;7.30;99.90;;;;;;5039680;28;20243;-59
2021/12/25 13:17:57;;;;;;;10.98;4.57;;;7.30;99.90;;;;;;5047562;28;20104;-60
2021/12/25 13:20:35;;;;;;;9.15;5.07;;;7.30;99.90;;;;;;5047731;28;20068;-60
2021/12/25 13:23:05;;;;;;;8.57;4.05;;;7.30;99.90;;;;;;5047916;28;20399;-61
2021/12/25 13:25:32;;;;;;;10.02;5.05;;;7.30;99.90;;;;;;5046789;28;20056;-61
2021/12/25 13:28:01;;;;;;;10.55;4.32;;;7.20;99.90;;;;;;5047757;28;20045;-61
2021/12/25 13:30:28;;;;;;;10.20;4.72;;;7.30;99.90;;;;;;5048261;28;20103;-61
2021/12/25 13:32:55;;;;;;;7.57;4.40;;;7.30;99.90;;;;;;5048055;28;20052;-61
2021/12/25 13:35:22;;;;;;;11.20;4.80;;;7.30;99.90;;;;;;5048118;28;20400;-61
2021/12/25 13:37:59;;;;;;;7.93;4.50;;;7.30;99.90;;;;;;5047770;28;20056;-61
2021/12/25 13:40:26;;;;;;;7.55;4.20;;;7.30;99.90;;;;;;5047582;28;20041;-61
2021/12/25 13:42:53;;;;;;;11.13;4.28;;;7.30;99.90;;;;;;5047752;28;20053;-61
2021/12/25 13:45:22;;;;;;;8.50;4.53;;;7.30;99.90;;;;;;5044078;28;20510;-61
2021/12/25 13:47:49;;;;;;;12.75;4.63;;;7.30;99.90;;;;;;5048014;28;20057;-61
2021/12/25 13:50:16;;;;;;;9.52;4.65;;;7.40;99.90;;;;;;5048895;28;20549;-61
2021/12/25 13:52:46;;;;;;;5.43;4.28;;;7.30;99.90;;;;;;5051924;28;20103;-61
2021/12/25 13:55:21;;;;;;;10.52;5.70;;;7.30;99.90;;;;;;5050857;28;20500;-62
2021/12/25 13:57:56;;;;;;;9.60;4.88;;;7.30;99.90;;;;;;5052291;28;20053;-61
2021/12/25 14:00:37;;;;;;;14.25;4.55;;;7.30;99.90;;;;;;5050042;28;20080;-62
2021/12/25 14:03:08;;;;;;;13.35;4.65;;;7.30;99.90;;;;;;5050423;28;20072;-62
2021/12/25 14:05:37;;;;;;;10.57;4.90;;;7.30;99.90;;;;;;5051113;28;20098;-61
2021/12/25 14:08:05;;;;;;;12.38;5.78;;;7.00;99.90;;;;;;5050981;28;20088;-62
2021/12/25 14:10:33;;;;;;;12.07;5.45;;;7.20;99.90;;;;;;5050919;28;20090;-61
2021/12/25 14:13:03;;;;;;;15.75;6.20;;;7.20;99.90;;;;;;5051010;28;20084;-61
2021/12/25 14:15:31;;;;;;;11.15;5.43;;;7.20;99.90;;;;;;5050754;28;20503;-62